Time;durP1;ratioP1;P1;durP2;ratioP2;P2;SDS_P1;SDS_P2;PMS_P1;PMS_P2;Temp;Humidity;BMP_temperature;BMP_pressure;BME280_temperature;BME280_humidity;BME280_pressure;Samples;Min_cycle;Max_cycle;Signal;HPM_P1;HPM_P2
2022/09/29 00:00:34;;;;;;;10.02;5.45;;;7.50;99.90;;;;;;5046747;28;20041;-62
2022/09/29 00:03:00;;;;;;;8.75;5.15;;;7.50;99.90;;;;;;5024741;28;20411;-60
2022/09/29 00:05:27;;;;;;;9.90;5.50;;;7.50;99.90;;;;;;5037962;28;20419;-60
2022/09/29 00:07:54;;;;;;;9.15;4.93;;;7.40;99.90;;;;;;5038440;28;20045;-60
2022/09/29 00:10:21;;;;;;;7.45;5.05;;;7.40;99.90;;;;;;5036828;28;20119;-62
2022/09/29 00:12:47;;;;;;;9.95;5.07;;;7.40;99.90;;;;;;5034682;28;20163;-63
2022/09/29 00:15:14;;;;;;;7.05;4.53;;;7.40;99.90;;;;;;5029668;28;20048;-60
2022/09/29 00:17:41;;;;;;;8.20;4.93;;;7.30;99.90;;;;;;5042579;28;20037;-61
2022/09/29 00:20:27;;;;;;;7.13;4.90;;;7.30;99.90;;;;;;5034325;28;20512;-61
2022/09/29 00:22:54;;;;;;;7.57;4.82;;;7.30;99.90;;;;;;5040565;28;20045;-62
2022/09/29 00:25:21;;;;;;;8.65;5.47;;;7.30;99.90;;;;;;5017116;28;20116;-62
2022/09/29 00:27:47;;;;;;;7.13;4.95;;;7.30;99.90;;;;;;5036172;28;20148;-62
2022/09/29 00:30:14;;;;;;;7.90;3.92;;;7.30;99.90;;;;;;5049789;28;20538;-61
2022/09/29 00:32:41;;;;;;;7.45;4.00;;;7.30;99.90;;;;;;5019629;28;20080;-61
2022/09/29 00:35:08;;;;;;;5.30;4.00;;;7.20;99.90;;;;;;5035120;28;20037;-60
2022/09/29 00:37:34;;;;;;;7.38;4.28;;;7.30;99.90;;;;;;5042119;28;20065;-59
2022/09/29 00:40:01;;;;;;;6.88;3.92;;;7.30;99.90;;;;;;5055347;28;20033;-63
2022/09/29 00:42:28;;;;;;;5.07;3.63;;;7.20;99.90;;;;;;5055154;28;20569;-60
2022/09/29 00:44:54;;;;;;;6.18;3.65;;;7.20;99.90;;;;;;5055354;28;20041;-61
2022/09/29 00:47:21;;;;;;;7.72;3.72;;;7.20;99.90;;;;;;5045233;28;20128;-59
2022/09/29 00:49:49;;;;;;;7.45;3.95;;;7.20;99.90;;;;;;5034342;28;20049;-62
2022/09/29 00:52:16;;;;;;;7.47;4.20;;;7.20;99.90;;;;;;5054885;28;20095;-61
2022/09/29 00:54:43;;;;;;;6.90;4.47;;;7.20;99.90;;;;;;5043415;28;20045;-61
2022/09/29 00:57:09;;;;;;;8.15;4.68;;;7.20;99.90;;;;;;5034654;28;20053;-63
2022/09/29 00:59:37;;;;;;;7.07;4.47;;;7.20;99.90;;;;;;5034432;28;20116;-62
2022/09/29 01:02:04;;;;;;;8.20;4.57;;;7.10;99.90;;;;;;5035408;28;20034;-60
2022/09/29 01:04:31;;;;;;;6.93;4.30;;;7.10;99.90;;;;;;5047548;28;20124;-63
2022/09/29 01:06:58;;;;;;;5.88;4.20;;;7.10;99.90;;;;;;5035229;28;20501;-64
2022/09/29 01:09:25;;;;;;;7.65;4.15;;;7.00;99.90;;;;;;5034557;28;20466;-62
2022/09/29 01:11:53;;;;;;;7.95;4.38;;;7.00;99.90;;;;;;5027859;28;20084;-62
2022/09/29 01:14:20;;;;;;;6.05;4.50;;;7.00;99.90;;;;;;5027146;28;20049;-62
2022/09/29 01:16:47;;;;;;;7.15;4.47;;;7.00;99.90;;;;;;5034671;28;20037;-61
2022/09/29 01:19:14;;;;;;;7.03;4.20;;;7.00;99.90;;;;;;5016283;28;20065;-62
2022/09/29 01:21:41;;;;;;;7.47;4.07;;;6.90;99.90;;;;;;5035380;28;20140;-61
2022/09/29 01:24:07;;;;;;;8.43;4.90;;;6.90;99.90;;;;;;5034315;28;20077;-63
2022/09/29 01:26:34;;;;;;;7.43;4.20;;;6.90;99.90;;;;;;5035518;28;20071;-63
2022/09/29 01:29:01;;;;;;;6.55;4.30;;;6.80;99.90;;;;;;5034603;28;20037;-62
2022/09/29 01:31:27;;;;;;;5.40;3.92;;;6.80;99.90;;;;;;5034501;28;20041;-62
2022/09/29 01:33:54;;;;;;;8.23;4.55;;;6.90;99.90;;;;;;5035353;28;20069;-63
2022/09/29 01:36:21;;;;;;;5.78;4.05;;;6.80;99.90;;;;;;5035179;28;20041;-61
2022/09/29 01:38:48;;;;;;;6.85;4.50;;;6.80;99.90;;;;;;5035850;28;20041;-62
2022/09/29 01:41:14;;;;;;;7.15;4.18;;;6.80;99.90;;;;;;5035328;28;20045;-63
2022/09/29 01:43:41;;;;;;;7.80;4.72;;;6.80;99.90;;;;;;5033913;28;20080;-62
2022/09/29 01:46:08;;;;;;;7.43;4.10;;;6.80;99.90;;;;;;5035375;28;20489;-62
2022/09/29 01:48:34;;;;;;;7.78;4.43;;;6.70;99.90;;;;;;5035034;28;20094;-61
2022/09/29 01:51:01;;;;;;;7.13;4.32;;;6.70;99.90;;;;;;5033473;28;20501;-63
2022/09/29 01:53:28;;;;;;;7.00;4.10;;;6.60;99.90;;;;;;5035130;28;20069;-64
2022/09/29 01:55:54;;;;;;;6.57;4.30;;;6.60;99.90;;;;;;5017330;28;20076;-62
2022/09/29 01:58:21;;;;;;;6.55;4.88;;;6.60;99.90;;;;;;5034090;28;20539;-63
2022/09/29 02:00:48;;;;;;;7.60;4.35;;;6.60;99.90;;;;;;5034931;28;20037;-60
2022/09/29 02:03:15;;;;;;;6.30;3.95;;;6.60;99.90;;;;;;5035224;28;20103;-61
2022/09/29 02:05:42;;;;;;;8.20;4.25;;;6.50;99.90;;;;;;5000683;28;20519;-62
2022/09/29 02:08:09;;;;;;;8.27;4.35;;;6.50;99.90;;;;;;5017645;28;20120;-64
2022/09/29 02:10:36;;;;;;;7.47;3.90;;;6.50;99.90;;;;;;5016467;28;20495;-62
2022/09/29 02:13:02;;;;;;;6.72;3.85;;;6.50;99.90;;;;;;5034235;28;20059;-63
2022/09/29 02:15:29;;;;;;;4.95;3.50;;;6.40;99.90;;;;;;5016270;28;20049;-60
2022/09/29 02:17:56;;;;;;;5.53;3.97;;;6.40;99.90;;;;;;5034010;28;20050;-64
2022/09/29 02:20:23;;;;;;;6.03;3.75;;;6.40;99.90;;;;;;5034294;28;20042;-61
2022/09/29 02:22:50;;;;;;;5.97;3.95;;;6.30;99.90;;;;;;5034520;28;20042;-59
2022/09/29 02:25:16;;;;;;;6.72;3.88;;;6.40;99.90;;;;;;5034456;28;20073;-62
2022/09/29 02:27:43;;;;;;;5.25;3.63;;;6.30;99.90;;;;;;5033764;28;20117;-63
2022/09/29 02:30:10;;;;;;;4.90;3.15;;;6.30;99.90;;;;;;5034347;28;20050;-62
2022/09/29 02:32:37;;;;;;;6.55;3.40;;;6.30;99.90;;;;;;5034121;28;20043;-63
2022/09/29 02:35:04;;;;;;;6.15;3.25;;;6.40;99.90;;;;;;5033586;28;20041;-62
2022/09/29 02:37:30;;;;;;;6.53;3.70;;;6.40;99.90;;;;;;5034552;28;20068;-61
2022/09/29 02:39:57;;;;;;;6.43;3.50;;;6.40;99.90;;;;;;5034176;28;20116;-60
2022/09/29 02:42:24;;;;;;;6.95;3.47;;;6.40;99.90;;;;;;5034430;28;20065;-59
2022/09/29 02:44:51;;;;;;;5.57;3.47;;;6.40;99.90;;;;;;5034552;28;20050;-65
2022/09/29 02:47:17;;;;;;;4.68;3.45;;;6.30;99.90;;;;;;5033564;28;20076;-62
2022/09/29 02:49:44;;;;;;;4.72;3.50;;;6.40;99.90;;;;;;5034397;28;20132;-60
2022/09/29 02:52:11;;;;;;;6.10;4.05;;;6.30;99.90;;;;;;5033139;28;20041;-60
2022/09/29 02:54:37;;;;;;;4.53;2.90;;;6.30;99.90;;;;;;5033964;28;20054;-60
2022/09/29 02:57:04;;;;;;;5.00;3.40;;;6.30;99.90;;;;;;5033383;28;20040;-63
2022/09/29 02:59:31;;;;;;;4.13;3.35;;;6.30;99.90;;;;;;5034199;28;20469;-63
2022/09/29 03:01:57;;;;;;;5.45;3.50;;;6.30;99.90;;;;;;5033078;28;20111;-61
2022/09/29 03:04:24;;;;;;;5.63;3.50;;;6.20;99.90;;;;;;5031516;28;20069;-62
2022/09/29 03:06:51;;;;;;;8.52;3.45;;;6.20;99.90;;;;;;5033789;28;20076;-63
2022/09/29 03:09:17;;;;;;;7.32;3.75;;;6.10;99.90;;;;;;5033896;28;20042;-62
2022/09/29 03:11:44;;;;;;;6.00;4.00;;;6.10;99.90;;;;;;5032800;28;20115;-62
2022/09/29 03:14:11;;;;;;;5.45;3.40;;;6.00;99.90;;;;;;5033239;28;20068;-60
2022/09/29 03:16:38;;;;;;;6.60;3.83;;;6.00;99.90;;;;;;5032831;28;20052;-61
2022/09/29 03:19:06;;;;;;;7.47;3.80;;;6.00;99.90;;;;;;5033601;28;20512;-61
2022/09/29 03:21:33;;;;;;;5.35;3.60;;;6.10;99.90;;;;;;5033812;28;20041;-60
2022/09/29 03:24:00;;;;;;;3.92;3.17;;;6.10;99.90;;;;;;5015503;28;20053;-61
2022/09/29 03:26:26;;;;;;;5.72;3.60;;;6.10;99.90;;;;;;5033481;28;20049;-60
2022/09/29 03:28:53;;;;;;;6.18;3.45;;;6.10;99.90;;;;;;5032861;28;20037;-61
2022/09/29 03:31:20;;;;;;;6.28;3.60;;;6.10;99.90;;;;;;5032470;28;20072;-60
2022/09/29 03:33:47;;;;;;;5.55;3.70;;;6.10;99.90;;;;;;5033330;28;20480;-62
2022/09/29 03:36:14;;;;;;;6.50;3.85;;;6.10;99.90;;;;;;5032631;28;20068;-62
2022/09/29 03:38:42;;;;;;;7.15;3.92;;;6.10;99.90;;;;;;5033600;28;20064;-63
2022/09/29 03:41:09;;;;;;;5.40;3.15;;;6.10;99.90;;;;;;5033459;28;20042;-60
2022/09/29 03:43:36;;;;;;;4.75;3.50;;;6.00;99.90;;;;;;5032341;28;20041;-62
2022/09/29 03:46:03;;;;;;;7.30;3.80;;;6.00;99.90;;;;;;5033173;28;20096;-65
2022/09/29 03:48:30;;;;;;;6.50;3.97;;;6.00;99.90;;;;;;5032816;28;20052;-63
2022/09/29 03:50:56;;;;;;;7.50;3.90;;;6.00;99.90;;;;;;5032564;28;20038;-66
2022/09/29 03:53:23;;;;;;;7.82;3.42;;;5.90;99.90;;;;;;5032997;28;20125;-62
2022/09/29 03:55:50;;;;;;;7.85;4.03;;;5.90;99.90;;;;;;5032255;28;20124;-62
2022/09/29 03:58:16;;;;;;;6.45;3.65;;;5.90;99.90;;;;;;5032503;28;20088;-64
2022/09/29 04:00:43;;;;;;;5.43;3.67;;;5.90;99.90;;;;;;5031597;28;20443;-67
2022/09/29 04:03:10;;;;;;;6.80;3.90;;;5.90;99.90;;;;;;5031287;28;20124;-62
2022/09/29 04:05:37;;;;;;;5.57;4.03;;;5.80;99.90;;;;;;5032490;28;20046;-63
2022/09/29 04:08:04;;;;;;;5.28;3.78;;;5.90;99.90;;;;;;5031604;28;20045;-60
2022/09/29 04:10:31;;;;;;;5.10;3.80;;;5.80;99.90;;;;;;5033224;28;20405;-61
2022/09/29 04:12:57;;;;;;;6.28;4.43;;;5.80;99.90;;;;;;5031598;28;20045;-62
2022/09/29 04:15:24;;;;;;;4.90;3.55;;;5.80;99.90;;;;;;5031264;28;20113;-62
2022/09/29 04:17:51;;;;;;;5.03;3.40;;;5.80;99.90;;;;;;5032315;28;20045;-62
2022/09/29 04:20:17;;;;;;;4.60;3.17;;;5.80;99.90;;;;;;5032088;28;20038;-64
2022/09/29 04:22:44;;;;;;;6.18;3.90;;;5.80;99.90;;;;;;5032065;28;20091;-62
2022/09/29 04:25:11;;;;;;;6.55;3.80;;;5.80;99.90;;;;;;5035670;28;20050;-60
2022/09/29 04:27:37;;;;;;;6.50;3.50;;;5.70;99.90;;;;;;5034954;28;20073;-62
2022/09/29 04:30:04;;;;;;;7.20;3.55;;;5.70;99.90;;;;;;5035378;28;20068;-65
2022/09/29 04:32:31;;;;;;;5.88;3.80;;;5.70;99.90;;;;;;5035507;28;20073;-64
2022/09/29 04:34:58;;;;;;;6.18;3.63;;;5.70;99.90;;;;;;5036158;28;20073;-65
2022/09/29 04:37:24;;;;;;;5.18;3.70;;;5.70;99.90;;;;;;5035483;28;20412;-65
2022/09/29 04:39:54;;;;;;;6.50;3.47;;;5.70;99.90;;;;;;5035314;28;20041;-61
2022/09/29 04:42:21;;;;;;;7.65;3.80;;;5.80;99.90;;;;;;5034223;28;20463;-64
2022/09/29 04:44:47;;;;;;;5.43;3.60;;;5.80;99.90;;;;;;5036112;28;20084;-64
2022/09/29 04:47:14;;;;;;;6.85;3.80;;;5.80;99.90;;;;;;5035166;28;20051;-62
2022/09/29 04:49:41;;;;;;;5.13;3.50;;;5.80;99.90;;;;;;5036556;28;20117;-62
2022/09/29 04:52:07;;;;;;;5.63;3.47;;;5.90;99.90;;;;;;5035038;28;20048;-65
2022/09/29 04:54:34;;;;;;;6.00;3.85;;;5.90;99.90;;;;;;5035028;28;20112;-63
2022/09/29 04:57:03;;;;;;;5.05;3.40;;;6.00;99.90;;;;;;5032176;28;20065;-63
2022/09/29 04:59:30;;;;;;;7.43;3.78;;;6.10;99.90;;;;;;5034916;28;20136;-65
2022/09/29 05:01:57;;;;;;;5.68;3.60;;;6.10;99.90;;;;;;5032798;28;20065;-62
2022/09/29 05:04:23;;;;;;;6.65;3.72;;;6.10;99.90;;;;;;5031848;28;20063;-65
2022/09/29 05:06:50;;;;;;;4.30;3.38;;;6.20;99.90;;;;;;5016253;28;20505;-63
2022/09/29 05:09:17;;;;;;;5.32;3.63;;;6.20;99.90;;;;;;5033696;28;20050;-63
2022/09/29 05:11:49;;;;;;;7.10;3.80;;;6.30;99.90;;;;;;5034367;28;20065;-62
2022/09/29 05:14:16;;;;;;;7.20;3.63;;;6.30;99.90;;;;;;5034339;28;20448;-62
2022/09/29 05:16:43;;;;;;;7.30;4.00;;;6.40;99.90;;;;;;5034721;28;20357;-64
2022/09/29 05:19:09;;;;;;;7.65;4.40;;;6.40;99.90;;;;;;5033720;28;20534;-63
2022/09/29 05:21:36;;;;;;;7.03;4.30;;;6.40;99.90;;;;;;5032633;28;20045;-65
2022/09/29 05:24:03;;;;;;;9.75;4.85;;;6.40;99.90;;;;;;5033526;28;20049;-62
2022/09/29 05:26:30;;;;;;;7.22;4.38;;;6.50;99.90;;;;;;5034207;28;20120;-64
2022/09/29 05:28:56;;;;;;;9.15;5.22;;;6.50;99.90;;;;;;5035694;28;20136;-60
2022/09/29 05:31:23;;;;;;;6.85;4.65;;;6.50;99.90;;;;;;5034377;28;20088;-63
2022/09/29 05:33:50;;;;;;;9.05;4.95;;;6.60;99.90;;;;;;5034371;28;20041;-61
2022/09/29 05:36:17;;;;;;;8.27;4.35;;;6.60;99.90;;;;;;5015754;28;20045;-62
2022/09/29 05:38:43;;;;;;;7.90;4.10;;;6.60;99.90;;;;;;5034828;28;20073;-63
2022/09/29 05:41:11;;;;;;;5.50;3.95;;;6.60;99.90;;;;;;5033635;28;20117;-61
2022/09/29 05:43:38;;;;;;;6.15;4.05;;;6.70;99.90;;;;;;5017251;28;20103;-60
2022/09/29 05:46:04;;;;;;;6.88;4.20;;;6.70;99.90;;;;;;5034586;28;20037;-58
2022/09/29 05:48:31;;;;;;;6.25;4.03;;;6.70;99.90;;;;;;5034935;28;20080;-62
2022/09/29 05:50:58;;;;;;;7.13;4.30;;;6.80;99.90;;;;;;5034528;28;20037;-61
2022/09/29 05:53:25;;;;;;;6.10;3.80;;;6.80;99.90;;;;;;5033707;28;20077;-65
2022/09/29 05:55:51;;;;;;;6.38;4.03;;;6.80;99.90;;;;;;5032834;28;20128;-62
2022/09/29 05:58:18;;;;;;;6.90;3.75;;;6.90;99.90;;;;;;5026011;28;20108;-62
2022/09/29 06:00:45;;;;;;;5.97;3.90;;;6.90;99.90;;;;;;5032298;28;20038;-60
2022/09/29 06:03:12;;;;;;;6.20;3.90;;;6.90;99.90;;;;;;5032344;28;20484;-62
2022/09/29 06:05:38;;;;;;;5.93;3.58;;;7.00;99.90;;;;;;5033562;28;20037;-60
2022/09/29 06:08:05;;;;;;;6.15;3.70;;;7.00;99.90;;;;;;5017065;28;20453;-61
2022/09/29 06:10:32;;;;;;;4.85;3.80;;;7.10;99.90;;;;;;5031220;28;20116;-62
2022/09/29 06:13:00;;;;;;;7.85;4.38;;;7.10;99.90;;;;;;5033924;28;20073;-60
2022/09/29 06:15:26;;;;;;;7.70;4.35;;;7.10;99.90;;;;;;5031665;28;20061;-60
2022/09/29 06:17:53;;;;;;;5.65;4.20;;;7.10;99.90;;;;;;5032953;28;20124;-62
2022/09/29 06:20:20;;;;;;;7.03;4.32;;;7.20;99.90;;;;;;5033949;28;20121;-61
2022/09/29 06:22:47;;;;;;;5.63;4.22;;;7.20;99.90;;;;;;5034682;28;20038;-61
2022/09/29 06:25:14;;;;;;;7.53;4.80;;;7.30;99.90;;;;;;5035638;28;20045;-63
2022/09/29 06:27:41;;;;;;;7.55;4.32;;;7.30;99.90;;;;;;5043193;28;20492;-62
2022/09/29 06:30:07;;;;;;;7.22;4.25;;;7.30;99.90;;;;;;5053868;28;20094;-61
2022/09/29 06:32:34;;;;;;;7.93;4.35;;;7.40;99.90;;;;;;5054738;28;20395;-61
2022/09/29 06:37:47;;;;;;;7.63;4.47;;;7.50;99.90;;;;;;5025512;28;20432;-62
2022/09/29 06:40:13;;;;;;;5.22;4.00;;;7.50;99.90;;;;;;5030082;28;20052;-65
2022/09/29 06:42:40;;;;;;;7.30;4.30;;;7.50;99.90;;;;;;5033130;28;20045;-60
2022/09/29 06:45:07;;;;;;;6.25;4.05;;;7.60;99.90;;;;;;5014804;28;20359;-60
2022/09/29 06:47:34;;;;;;;5.57;4.15;;;7.60;99.90;;;;;;5027951;28;20045;-62
2022/09/29 06:50:01;;;;;;;7.85;4.05;;;7.70;99.90;;;;;;5032049;28;20071;-65
2022/09/29 06:52:44;;;;;;;6.93;4.75;;;7.70;99.90;;;;;;5030925;28;20087;-62
2022/09/29 06:55:27;;;;;;;4.60;4.00;;;7.80;99.90;;;;;;5032468;28;20048;-61
2022/09/29 06:57:54;;;;;;;5.43;3.85;;;7.80;99.90;;;;;;5029337;28;20481;-61
2022/09/29 07:00:25;;;;;;;5.95;4.50;;;7.80;99.90;;;;;;5032949;28;20045;-62
2022/09/29 07:02:53;;;;;;;8.32;4.43;;;7.90;99.90;;;;;;5031079;28;20496;-60
2022/09/29 07:05:19;;;;;;;6.70;4.65;;;7.90;99.90;;;;;;5033832;28;20242;-61
2022/09/29 07:07:46;;;;;;;8.95;5.72;;;7.90;99.90;;;;;;5031646;28;21931;-61
2022/09/29 07:10:18;;;;;;;20.33;9.32;;;7.90;99.90;;;;;;5031672;28;20076;-62
2022/09/29 07:12:45;;;;;;;18.33;10.02;;;7.90;99.90;;;;;;5011238;28;20089;-62
2022/09/29 07:15:12;;;;;;;16.83;9.50;;;8.00;99.90;;;;;;5011656;28;20046;-61
2022/09/29 07:17:39;;;;;;;11.57;7.30;;;8.00;99.90;;;;;;5013085;28;20038;-61
2022/09/29 07:20:06;;;;;;;8.38;5.35;;;8.10;99.90;;;;;;5010072;28;20113;-61
2022/09/29 07:22:33;;;;;;;7.55;4.05;;;8.20;99.90;;;;;;5012587;28;20068;-60
2022/09/29 07:24:59;;;;;;;11.60;4.90;;;8.20;99.90;;;;;;5012420;28;20099;-62
2022/09/29 07:27:28;;;;;;;9.80;5.30;;;8.30;99.90;;;;;;5013793;28;20128;-61
2022/09/29 07:29:55;;;;;;;9.32;4.97;;;8.40;99.90;;;;;;5013916;28;20081;-63
2022/09/29 07:32:31;;;;;;;8.65;3.88;;;8.40;99.90;;;;;;5013920;28;20065;-62
2022/09/29 07:34:58;;;;;;;8.43;3.25;;;8.50;99.90;;;;;;5013480;28;20034;-61
2022/09/29 07:37:25;;;;;;;7.13;2.80;;;8.60;99.90;;;;;;5013981;28;20048;-65
2022/09/29 07:39:53;;;;;;;3.72;2.30;;;8.70;99.90;;;;;;5014217;28;20124;-62
2022/09/29 07:42:20;;;;;;;5.43;2.55;;;8.70;99.90;;;;;;5013973;28;20088;-62
2022/09/29 07:44:53;;;;;;;4.93;2.60;;;8.90;99.90;;;;;;5012643;28;20077;-60
2022/09/29 07:47:20;;;;;;;5.50;2.55;;;8.90;99.90;;;;;;5013845;28;20512;-61
2022/09/29 07:49:47;;;;;;;5.30;2.35;;;9.00;99.90;;;;;;5014255;28;20081;-62
2022/09/29 07:52:14;;;;;;;4.55;2.63;;;9.10;99.90;;;;;;5012246;28;20062;-60
2022/09/29 07:54:41;;;;;;;4.97;2.80;;;9.20;99.90;;;;;;5013628;28;20041;-64
2022/09/29 07:57:08;;;;;;;5.75;2.50;;;9.20;99.90;;;;;;5013711;28;20049;-65
2022/09/29 07:59:34;;;;;;;4.47;2.78;;;9.30;99.90;;;;;;5015207;28;20508;-60
2022/09/29 08:02:01;;;;;;;6.60;2.80;;;9.30;99.90;;;;;;5017853;28;20066;-62
2022/09/29 08:04:28;;;;;;;3.28;2.65;;;9.40;99.90;;;;;;5017336;28;20042;-63
2022/09/29 08:06:55;;;;;;;7.10;3.40;;;9.40;99.90;;;;;;5017342;28;20512;-63
2022/09/29 08:09:23;;;;;;;7.53;3.63;;;9.40;99.90;;;;;;5017405;28;20042;-63
2022/09/29 08:12:05;;;;;;;5.63;3.03;;;9.40;99.90;;;;;;5018794;28;20041;-61
2022/09/29 08:14:34;;;;;;;7.15;3.33;;;9.40;99.90;;;;;;5037176;28;20045;-63
2022/09/29 08:17:00;;;;;;;4.00;3.00;;;9.40;99.90;;;;;;5036153;28;20103;-64
2022/09/29 08:19:27;;;;;;;7.00;3.28;;;9.40;99.90;;;;;;5036608;28;20524;-61
2022/09/29 08:21:54;;;;;;;4.50;2.97;;;9.40;99.90;;;;;;5036558;28;20120;-62
2022/09/29 08:24:21;;;;;;;4.72;3.20;;;9.40;99.90;;;;;;5036099;28;20492;-64
2022/09/29 08:26:47;;;;;;;5.45;3.15;;;9.40;99.90;;;;;;5036420;28;20136;-60
2022/09/29 08:29:14;;;;;;;5.43;3.05;;;9.40;99.90;;;;;;5036156;28;20120;-62
2022/09/29 08:31:43;;;;;;;4.78;3.67;;;9.40;99.90;;;;;;5036293;28;20057;-61
2022/09/29 08:34:10;;;;;;;5.65;3.72;;;9.40;99.90;;;;;;5035993;28;20477;-63
2022/09/29 08:36:36;;;;;;;5.13;3.05;;;9.40;99.90;;;;;;5035904;28;20072;-61
2022/09/29 08:39:03;;;;;;;5.13;3.65;;;9.40;99.90;;;;;;5035938;28;20073;-62
2022/09/29 08:41:32;;;;;;;6.80;3.45;;;9.50;99.90;;;;;;5035847;28;20460;-61
2022/09/29 08:43:59;;;;;;;5.88;3.47;;;9.50;99.90;;;;;;5035536;28;20046;-59
2022/09/29 08:46:26;;;;;;;9.45;4.35;;;9.50;99.90;;;;;;5035343;28;20049;-64
2022/09/29 08:49:01;;;;;;;6.68;4.20;;;9.60;99.90;;;;;;5033885;28;20049;-61
2022/09/29 08:51:28;;;;;;;7.03;4.47;;;9.60;99.90;;;;;;5035790;28;20076;-62
2022/09/29 08:54:07;;;;;;;7.78;3.90;;;9.70;99.90;;;;;;5035599;28;20447;-63
2022/09/29 08:56:34;;;;;;;6.60;4.07;;;9.70;99.90;;;;;;5035388;28;20073;-62
2022/09/29 08:59:01;;;;;;;5.03;3.75;;;9.80;99.90;;;;;;5035373;28;20459;-64
2022/09/29 09:01:27;;;;;;;5.82;4.40;;;9.90;99.90;;;;;;5035502;28;20033;-60
2022/09/29 09:03:55;;;;;;;7.57;4.05;;;9.90;99.90;;;;;;5034582;28;20053;-63
2022/09/29 09:06:22;;;;;;;6.00;3.70;;;10.00;99.90;;;;;;5034437;28;20056;-61
2022/09/29 09:08:50;;;;;;;7.80;4.35;;;10.00;99.90;;;;;;5035574;28;20045;-60
2022/09/29 09:11:17;;;;;;;7.72;4.07;;;10.10;99.90;;;;;;5033501;28;20113;-61
2022/09/29 09:13:44;;;;;;;5.50;4.25;;;10.20;99.90;;;;;;5035213;28;20049;-61
2022/09/29 09:16:10;;;;;;;7.25;4.50;;;10.20;99.90;;;;;;5035374;28;20365;-60
2022/09/29 09:18:37;;;;;;;5.68;4.32;;;10.30;99.90;;;;;;5034647;28;20061;-62
2022/09/29 09:21:04;;;;;;;6.32;4.50;;;10.30;99.90;;;;;;5035362;28;20045;-61
2022/09/29 09:23:31;;;;;;;5.18;3.92;;;10.40;99.90;;;;;;5017674;28;20045;-62
2022/09/29 09:25:57;;;;;;;5.47;3.70;;;10.40;99.90;;;;;;5034223;28;20041;-60
2022/09/29 09:28:25;;;;;;;5.75;4.22;;;10.50;99.90;;;;;;5035268;28;20069;-61
2022/09/29 09:30:51;;;;;;;6.15;4.18;;;10.50;99.90;;;;;;5035275;28;20042;-63
2022/09/29 09:33:18;;;;;;;8.18;3.80;;;10.50;99.90;;;;;;5035183;28;20053;-62
2022/09/29 09:35:56;;;;;;;5.53;2.80;;;10.60;99.90;;;;;;5034932;28;20041;-62
2022/09/29 09:38:24;;;;;;;11.85;4.22;;;10.60;99.90;;;;;;5034962;28;20076;-61
2022/09/29 09:40:51;;;;;;;7.75;3.97;;;10.80;99.90;;;;;;5035145;28;20041;-62
2022/09/29 09:43:19;;;;;;;6.95;3.80;;;10.80;99.90;;;;;;5034798;28;20052;-63
2022/09/29 09:45:47;;;;;;;7.68;3.38;;;10.80;99.90;;;;;;5034743;28;20073;-62
2022/09/29 09:48:14;;;;;;;5.55;3.00;;;10.90;99.90;;;;;;5034839;28;20054;-61
2022/09/29 09:50:49;;;;;;;5.53;3.20;;;10.90;99.90;;;;;;5034607;28;20488;-62
2022/09/29 09:53:16;;;;;;;6.03;3.10;;;11.00;99.90;;;;;;5034743;28;20508;-62
2022/09/29 09:55:42;;;;;;;6.43;3.55;;;11.10;99.90;;;;;;5034479;28;20424;-65
2022/09/29 09:58:09;;;;;;;7.78;3.80;;;11.10;99.90;;;;;;5034633;28;20041;-62
2022/09/29 10:00:36;;;;;;;7.25;3.33;;;11.20;99.90;;;;;;5034779;28;20041;-61
2022/09/29 10:03:02;;;;;;;5.30;3.20;;;11.20;99.90;;;;;;5033464;28;20110;-62
2022/09/29 10:05:29;;;;;;;7.85;3.60;;;11.30;99.90;;;;;;5034340;28;20041;-61
2022/09/29 10:07:56;;;;;;;5.45;3.63;;;11.40;99.90;;;;;;5034555;28;20128;-62
2022/09/29 10:10:22;;;;;;;7.55;3.55;;;11.50;99.90;;;;;;5032855;28;20207;-61
2022/09/29 10:12:49;;;;;;;5.28;3.60;;;11.60;99.90;;;;;;5034021;28;20045;-62
2022/09/29 10:15:16;;;;;;;7.90;4.13;;;11.70;99.90;;;;;;5034374;28;20132;-61
2022/09/29 10:17:43;;;;;;;6.20;3.75;;;11.80;99.90;;;;;;5015755;28;20049;-63
2022/09/29 10:20:10;;;;;;;5.82;3.72;;;11.80;99.90;;;;;;5034158;28;20480;-62
2022/09/29 10:22:38;;;;;;;9.63;3.95;;;11.90;99.90;;;;;;5030890;28;20052;-65
2022/09/29 10:25:04;;;;;;;8.18;3.72;;;11.90;99.90;;;;;;5032448;28;20128;-63
2022/09/29 10:27:31;;;;;;;5.78;3.70;;;12.00;99.90;;;;;;5041700;28;20095;-60
2022/09/29 10:29:59;;;;;;;6.82;3.72;;;12.10;99.90;;;;;;5033994;28;20045;-61
2022/09/29 10:32:26;;;;;;;8.27;4.18;;;12.30;99.90;;;;;;5033912;28;20045;-63
2022/09/29 10:34:56;;;;;;;6.43;3.72;;;12.40;99.90;;;;;;5033817;28;20140;-61
2022/09/29 10:37:22;;;;;;;5.80;3.22;;;12.60;99.90;;;;;;5033902;28;20487;-60
2022/09/29 10:39:49;;;;;;;8.77;3.47;;;12.70;99.90;;;;;;5033869;28;20045;-64
2022/09/29 10:42:16;;;;;;;6.30;3.15;;;12.70;99.90;;;;;;5033914;28;20048;-62
2022/09/29 10:44:43;;;;;;;8.35;3.20;;;12.80;99.80;;;;;;5033597;28;20048;-61
2022/09/29 10:47:10;;;;;;;7.75;3.38;;;12.80;99.90;;;;;;5033645;28;20128;-61
2022/09/29 10:49:36;;;;;;;4.60;2.83;;;12.80;99.90;;;;;;5033909;28;20380;-61
2022/09/29 10:52:03;;;;;;;7.82;3.30;;;12.90;99.40;;;;;;5033814;28;20068;-61
2022/09/29 10:54:30;;;;;;;4.72;2.65;;;12.80;99.70;;;;;;5040347;28;20485;-66
2022/09/29 10:56:56;;;;;;;3.55;2.10;;;12.90;99.60;;;;;;5052783;28;20120;-64
2022/09/29 10:59:23;;;;;;;6.10;1.85;;;12.90;99.60;;;;;;5052690;28;20041;-63
2022/09/29 11:01:50;;;;;;;3.10;2.00;;;12.90;98.30;;;;;;5052972;28;20072;-65
2022/09/29 11:04:17;;;;;;;2.60;1.70;;;13.00;98.50;;;;;;5027084;28;20133;-61
2022/09/29 11:06:44;;;;;;;3.40;2.33;;;13.00;98.50;;;;;;5008484;28;20124;-61
2022/09/29 11:09:11;;;;;;;4.75;3.25;;;13.10;98.60;;;;;;5032711;28;20037;-64
2022/09/29 11:11:38;;;;;;;7.32;2.85;;;13.10;98.30;;;;;;5036593;28;20037;-65
2022/09/29 11:14:05;;;;;;;4.63;3.30;;;13.10;98.70;;;;;;5051855;28;20049;-64
2022/09/29 11:16:32;;;;;;;5.35;3.22;;;13.20;98.80;;;;;;5036675;28;20112;-65
2022/09/29 11:18:58;;;;;;;5.45;3.25;;;13.40;98.80;;;;;;5033394;28;20493;-63
2022/09/29 11:21:25;;;;;;;7.60;3.42;;;13.50;99.00;;;;;;5033200;28;20998;-62
2022/09/29 11:23:52;;;;;;;4.07;3.33;;;13.60;98.50;;;;;;5032926;28;20132;-64
2022/09/29 11:26:19;;;;;;;5.68;3.03;;;13.70;98.50;;;;;;5048194;28;20106;-63
2022/09/29 11:28:45;;;;;;;7.35;3.05;;;13.80;98.30;;;;;;5052137;28;20048;-64
2022/09/29 11:31:12;;;;;;;3.67;2.30;;;13.80;98.50;;;;;;5052135;28;20041;-62
2022/09/29 11:33:39;;;;;;;7.55;2.63;;;13.70;97.90;;;;;;5033725;28;20136;-61
2022/09/29 11:36:06;;;;;;;3.58;2.17;;;13.70;98.00;;;;;;5051988;28;20072;-65
2022/09/29 11:38:32;;;;;;;4.30;2.47;;;13.70;98.10;;;;;;5042405;28;20038;-62
2022/09/29 11:40:59;;;;;;;4.28;2.20;;;13.70;97.90;;;;;;5032968;28;20072;-61
2022/09/29 11:43:26;;;;;;;2.95;2.00;;;13.70;97.80;;;;;;5032967;28;20049;-62
2022/09/29 11:45:53;;;;;;;6.22;2.00;;;13.80;97.90;;;;;;5032924;28;20120;-62
2022/09/29 11:48:19;;;;;;;5.97;1.90;;;13.80;97.60;;;;;;5033019;28;20040;-62
2022/09/29 11:50:46;;;;;;;5.72;1.83;;;13.90;97.60;;;;;;5032810;28;20041;-61
2022/09/29 11:53:13;;;;;;;2.80;1.52;;;14.00;97.20;;;;;;5032720;28;20124;-63
2022/09/29 11:55:41;;;;;;;3.63;1.45;;;14.00;96.70;;;;;;5032879;28;20041;-61
2022/09/29 11:58:07;;;;;;;3.78;1.20;;;14.00;96.20;;;;;;5032734;28;20038;-60
2022/09/29 12:00:34;;;;;;;3.55;1.20;;;14.00;95.80;;;;;;5032768;28;20053;-64
2022/09/29 12:03:01;;;;;;;3.17;1.33;;;14.00;96.60;;;;;;5032823;28;20038;-65
2022/09/29 12:05:28;;;;;;;4.00;1.30;;;14.00;96.00;;;;;;5026176;28;20037;-60
2022/09/29 12:07:57;;;;;;;2.42;1.23;;;14.00;96.10;;;;;;5032037;28;20075;-62
2022/09/29 12:10:24;;;;;;;3.97;1.60;;;14.00;94.90;;;;;;5032511;28;20080;-61
2022/09/29 12:12:54;;;;;;;3.58;1.63;;;14.10;95.90;;;;;;5026130;28;20053;-64
2022/09/29 12:15:21;;;;;;;3.75;1.60;;;14.10;96.30;;;;;;5026492;28;20053;-62
2022/09/29 12:17:47;;;;;;;4.45;1.65;;;14.20;96.00;;;;;;5032635;28;20095;-65
2022/09/29 12:20:14;;;;;;;2.95;1.50;;;14.20;96.00;;;;;;5025892;28;20049;-61
2022/09/29 12:22:41;;;;;;;6.30;1.90;;;14.30;96.20;;;;;;5033787;28;20488;-62
2022/09/29 12:25:10;;;;;;;4.90;1.73;;;14.40;96.20;;;;;;5051936;28;20045;-65
2022/09/29 12:27:37;;;;;;;3.58;1.75;;;14.50;95.80;;;;;;5051540;28;20168;-63
2022/09/29 12:30:04;;;;;;;3.80;1.70;;;14.50;96.10;;;;;;5051565;28;20132;-61
2022/09/29 12:32:31;;;;;;;3.90;1.40;;;14.60;95.60;;;;;;5045180;28;20428;-63
2022/09/29 12:34:57;;;;;;;3.95;1.95;;;14.60;94.90;;;;;;5031907;28;20049;-63
2022/09/29 12:37:24;;;;;;;3.35;1.10;;;14.60;94.40;;;;;;5031764;28;20056;-62
2022/09/29 12:39:51;;;;;;;2.70;1.10;;;14.70;93.90;;;;;;5038062;28;20095;-61
2022/09/29 12:42:18;;;;;;;3.50;1.40;;;14.70;93.90;;;;;;5051076;28;20037;-62
2022/09/29 12:44:44;;;;;;;7.25;1.30;;;14.60;93.80;;;;;;5032318;28;20463;-63
2022/09/29 12:47:11;;;;;;;2.42;1.30;;;14.60;93.90;;;;;;5047390;28;20051;-64
2022/09/29 12:49:38;;;;;;;4.65;1.63;;;14.50;94.10;;;;;;5050936;28;20037;-63
2022/09/29 12:52:04;;;;;;;3.80;1.00;;;14.40;94.60;;;;;;5035619;28;20047;-62
2022/09/29 12:54:31;;;;;;;2.63;1.08;;;14.40;94.30;;;;;;5035920;28;20045;-64